Archival Weather

Chicago O'Hare International

Chicago, Illinois (KORD)

Report from: Friday, August 11, 2023 5:51 PM CDT
Current time: Wednesday, April 24, 2024 1:23 PM CDT

Current weather – Weather history – Daily summaries
Weather forecast

Temperature28.9°C (84.0°F)
Heat index30.6°C (87.1°F)
Dew point19.4°C (66.9°F)
Winds 9 kts (4.6 m/s, 10.4 mph) West (260°)
Visibility10 mi. (16.1 km)
Clouds Ceiling: Broken clouds 4,000 ft. (1,219 m)
Altimeter29.73 in.Hg (1007 mB)
Relative humidity57 %
Density altitude2,147 ft. (654 m)
Sea-level pressure100.6 kPa (1006 mB, 29.71 in.Hg)
Remarks Automated weather observing station with precipitation discriminator
Flight conditions Visual Meteorological Conditions
Raw dataKORD 112251Z 26009KT 10SM BKN040 29/19 A2973 RMK AO2 SLP060 T02890194
An error has occurred. This application may no longer respond until reloaded. Reload 🗙